createdAt,value
2022-09-15T00:01:19.731Z,14.54
2022-09-15T00:03:48.763Z,14.51
2022-09-15T00:06:17.274Z,14.49
2022-09-15T00:08:45.140Z,14.46
2022-09-15T00:11:23.146Z,14.41
2022-09-15T00:13:52.139Z,14.26
2022-09-15T00:16:24.286Z,13.95
2022-09-15T00:18:52.723Z,14.07
2022-09-15T00:21:26.555Z,14.20
2022-09-15T00:23:55.177Z,14.21
2022-09-15T00:26:26.539Z,14.20
2022-09-15T00:28:58.131Z,14.23
2022-09-15T00:31:28.573Z,14.25
2022-09-15T00:33:59.012Z,14.27
2022-09-15T00:36:27.051Z,14.28
2022-09-15T00:38:55.910Z,14.29
2022-09-15T00:41:25.004Z,14.30
2022-09-15T00:43:57.454Z,14.27
2022-09-15T00:46:34.318Z,14.20
2022-09-15T00:49:14.718Z,14.19
2022-09-15T00:51:52.618Z,14.19
2022-09-15T00:54:31.830Z,14.15
2022-09-15T00:57:06.909Z,14.12
2022-09-15T00:59:39.136Z,14.08
2022-09-15T01:02:21.714Z,14.08
2022-09-15T01:04:57.431Z,14.08
2022-09-15T01:07:39.965Z,14.03
2022-09-15T01:10:17.650Z,14.00
2022-09-15T01:12:45.702Z,13.97
2022-09-15T01:15:13.731Z,13.92
2022-09-15T01:18:14.611Z,13.92
2022-09-15T01:21:24.495Z,13.88
2022-09-15T01:24:20.022Z,13.91
2022-09-15T01:27:40.964Z,13.93
2022-09-15T01:30:21.514Z,13.87
2022-09-15T01:33:36.587Z,13.91
2022-09-15T01:36:34.297Z,13.90
2022-09-15T01:39:16.852Z,13.91
2022-09-15T01:41:55.471Z,13.89
2022-09-15T01:44:29.120Z,13.85
2022-09-15T01:47:03.033Z,13.84
2022-09-15T01:49:59.486Z,13.79
2022-09-15T01:52:29.150Z,13.76
2022-09-15T01:55:02.394Z,13.75
2022-09-15T01:57:30.279Z,13.77
2022-09-15T01:59:59.609Z,13.83
2022-09-15T02:02:48.086Z,13.81
2022-09-15T02:05:45.180Z,13.77
2022-09-15T02:08:25.120Z,13.78
2022-09-15T02:11:16.618Z,13.79
2022-09-15T02:14:17.242Z,13.80
2022-09-15T02:16:50.166Z,13.77
2022-09-15T02:19:37.164Z,13.76
2022-09-15T02:22:14.505Z,13.73
2022-09-15T02:25:02.950Z,13.69
2022-09-15T02:27:38.902Z,13.67
2022-09-15T02:30:11.835Z,13.66
2022-09-15T02:32:49.665Z,13.64
2022-09-15T02:35:17.971Z,13.60
2022-09-15T02:37:46.675Z,13.57
2022-09-15T02:40:14.872Z,13.56
2022-09-15T02:42:56.700Z,13.53
2022-09-15T02:45:25.496Z,13.52
2022-09-15T02:47:53.319Z,13.50
2022-09-15T02:50:21.212Z,13.51
2022-09-15T02:52:48.914Z,13.51
2022-09-15T02:55:16.623Z,13.49
2022-09-15T02:57:44.379Z,13.47
2022-09-15T03:00:13.560Z,13.48
2022-09-15T03:02:43.790Z,13.48
2022-09-15T03:05:14.684Z,13.47
2022-09-15T03:07:43.716Z,13.44
2022-09-15T03:10:13.288Z,13.43
2022-09-15T03:12:46.602Z,13.42
2022-09-15T03:15:19.120Z,13.39
2022-09-15T03:17:48.427Z,13.38
2022-09-15T03:20:21.752Z,13.36
2022-09-15T03:22:50.186Z,13.31
2022-09-15T03:25:18.514Z,13.29
2022-09-15T03:27:46.839Z,13.22
2022-09-15T03:30:15.346Z,13.23
2022-09-15T03:32:43.825Z,13.22
2022-09-15T03:35:11.649Z,13.19
2022-09-15T03:37:39.444Z,13.18
2022-09-15T03:40:08.156Z,13.17
2022-09-15T03:42:35.864Z,13.13
2022-09-15T03:45:04.429Z,13.11
2022-09-15T03:47:33.218Z,13.09
2022-09-15T03:50:00.962Z,13.10
2022-09-15T03:52:32.127Z,13.14
2022-09-15T03:54:59.822Z,13.17
2022-09-15T03:57:27.707Z,13.22
2022-09-15T03:59:55.475Z,13.24
2022-09-15T04:02:23.318Z,13.24
2022-09-15T04:04:51.074Z,13.24
2022-09-15T04:07:18.804Z,13.23
2022-09-15T04:09:46.520Z,13.20
2022-09-15T04:12:14.217Z,13.19
2022-09-15T04:14:42.159Z,13.21
2022-09-15T04:17:11.571Z,13.18
2022-09-15T04:19:39.334Z,13.19
2022-09-15T04:22:08.026Z,13.19
2022-09-15T04:24:35.887Z,13.20
2022-09-15T04:27:03.931Z,13.17
2022-09-15T04:29:31.764Z,13.18
2022-09-15T04:31:59.446Z,13.18
2022-09-15T04:34:27.202Z,13.19
2022-09-15T04:36:54.992Z,13.22
2022-09-15T04:39:22.882Z,13.24
2022-09-15T04:41:50.925Z,13.26
2022-09-15T04:44:18.802Z,13.26
2022-09-15T04:46:46.592Z,13.26
2022-09-15T04:49:14.484Z,13.27
2022-09-15T04:51:42.195Z,13.30
2022-09-15T04:54:09.902Z,13.32
2022-09-15T04:56:38.519Z,13.34
2022-09-15T04:59:06.247Z,13.35
2022-09-15T05:01:35.513Z,13.38
2022-09-15T05:04:04.324Z,13.38
2022-09-15T05:06:34.720Z,13.38
2022-09-15T05:09:09.949Z,13.32
2022-09-15T05:11:38.653Z,13.37
2022-09-15T05:14:07.994Z,13.41
2022-09-15T05:16:35.778Z,13.45
2022-09-15T05:19:04.702Z,13.47
2022-09-15T05:21:35.431Z,13.51
2022-09-15T05:24:07.473Z,13.55
2022-09-15T05:26:35.395Z,13.60
2022-09-15T05:29:03.127Z,13.64
2022-09-15T05:31:36.336Z,13.67
2022-09-15T05:34:06.723Z,13.73
2022-09-15T05:36:34.582Z,13.79
2022-09-15T05:39:02.375Z,13.87
2022-09-15T05:41:30.887Z,13.94
2022-09-15T05:43:59.096Z,13.96
2022-09-15T05:46:29.012Z,14.02
2022-09-15T05:48:59.031Z,14.06
2022-09-15T05:51:27.535Z,14.08
2022-09-15T05:53:55.348Z,14.15
2022-09-15T05:56:23.297Z,14.20
2022-09-15T05:58:51.014Z,14.28
2022-09-15T06:01:28.748Z,14.35
2022-09-15T06:03:58.285Z,14.40
2022-09-15T06:06:26.853Z,14.46
2022-09-15T06:08:58.865Z,14.51
2022-09-15T06:11:30.575Z,14.59
2022-09-15T06:14:01.048Z,14.64
2022-09-15T06:16:33.190Z,14.67
2022-09-15T06:19:01.821Z,14.76
2022-09-15T06:21:32.565Z,14.73
2022-09-15T06:24:04.435Z,14.76
2022-09-15T06:26:33.180Z,14.84
2022-09-15T06:29:03.709Z,14.86
2022-09-15T06:31:33.778Z,14.90
2022-09-15T06:34:04.000Z,14.94
2022-09-15T06:36:32.662Z,14.99
2022-09-15T06:39:00.501Z,15.01
2022-09-15T06:41:33.015Z,15.07
2022-09-15T06:44:17.564Z,15.08
2022-09-15T06:46:45.551Z,15.09
2022-09-15T06:49:14.143Z,15.12
2022-09-15T06:51:42.012Z,15.16
2022-09-15T06:54:09.855Z,15.17
2022-09-15T06:56:38.392Z,15.18
2022-09-15T06:59:07.365Z,15.21
2022-09-15T07:01:40.999Z,15.24
2022-09-15T07:04:10.133Z,15.33
2022-09-15T07:06:39.887Z,15.41
2022-09-15T07:09:08.156Z,15.50
2022-09-15T07:11:36.080Z,15.59
2022-09-15T07:14:04.933Z,15.70
2022-09-15T07:16:33.612Z,15.65
2022-09-15T07:19:03.559Z,15.69
2022-09-15T07:21:31.470Z,15.69
2022-09-15T07:24:03.709Z,15.73
2022-09-15T07:26:35.284Z,15.76
2022-09-15T07:29:06.767Z,15.84
2022-09-15T07:31:38.344Z,15.85
2022-09-15T07:34:07.661Z,15.90
2022-09-15T07:36:35.710Z,15.97
2022-09-15T07:39:05.504Z,16.03
2022-09-15T07:41:33.867Z,16.12
2022-09-15T07:44:02.046Z,16.14
2022-09-15T07:46:32.543Z,16.16
2022-09-15T07:49:03.039Z,16.19
2022-09-15T07:51:31.556Z,16.21
2022-09-15T07:53:59.606Z,16.28
2022-09-15T07:56:27.579Z,16.39
2022-09-15T07:58:56.499Z,16.37
2022-09-15T08:01:24.942Z,16.39
2022-09-15T08:03:53.422Z,16.52
2022-09-15T08:06:25.108Z,16.47
2022-09-15T08:08:59.262Z,16.55
2022-09-15T08:11:29.955Z,16.62
2022-09-15T08:14:02.261Z,16.64
2022-09-15T08:16:30.362Z,16.77
2022-09-15T08:18:58.411Z,16.80
2022-09-15T08:21:27.761Z,16.84
2022-09-15T08:23:59.204Z,16.87
2022-09-15T08:26:28.958Z,16.98
2022-09-15T08:28:57.898Z,17.06
2022-09-15T08:31:26.075Z,17.17
2022-09-15T08:33:56.130Z,17.30
2022-09-15T08:36:27.731Z,17.16
2022-09-15T08:38:56.461Z,17.16
2022-09-15T08:41:37.268Z,17.18
2022-09-15T08:44:30.279Z,17.26
2022-09-15T08:47:34.242Z,17.29
2022-09-15T08:50:23.072Z,17.37
2022-09-15T08:53:00.778Z,17.46
2022-09-15T08:55:52.612Z,17.45
2022-09-15T08:58:25.801Z,17.38
2022-09-15T09:01:18.725Z,17.51
2022-09-15T09:04:41.363Z,17.82
2022-09-15T09:07:34.091Z,17.70
2022-09-15T09:10:19.380Z,17.52
2022-09-15T09:13:18.364Z,17.32
2022-09-15T09:16:09.793Z,17.30
2022-09-15T09:19:22.907Z,17.30
2022-09-15T09:22:07.907Z,17.41
2022-09-15T09:24:46.998Z,17.62
2022-09-15T09:27:20.502Z,17.66
2022-09-15T09:29:55.918Z,17.75
2022-09-15T09:32:31.943Z,17.99
2022-09-15T09:35:29.011Z,18.12
2022-09-15T09:37:57.739Z,18.24
2022-09-15T09:40:26.249Z,18.18
2022-09-15T09:42:54.230Z,18.10
2022-09-15T09:45:22.948Z,18.01
2022-09-15T09:47:50.952Z,18.11
2022-09-15T09:50:44.627Z,18.02
2022-09-15T09:53:31.114Z,18.04
2022-09-15T09:56:26.122Z,18.25
2022-09-15T09:58:54.547Z,18.71
2022-09-15T10:01:26.155Z,18.94
2022-09-15T10:04:21.121Z,19.22
2022-09-15T10:06:49.234Z,19.04
2022-09-15T10:09:19.616Z,18.74
2022-09-15T10:11:57.562Z,18.73
2022-09-15T10:14:38.528Z,19.07
2022-09-15T10:17:42.845Z,19.44
2022-09-15T10:20:26.175Z,19.14
2022-09-15T10:23:07.522Z,19.25
2022-09-15T10:25:58.697Z,18.93
2022-09-15T10:28:27.665Z,18.56
2022-09-15T10:31:07.727Z,18.55
2022-09-15T10:33:38.907Z,18.60
2022-09-15T10:36:20.816Z,18.78
2022-09-15T10:39:00.484Z,19.30
2022-09-15T10:41:36.195Z,19.69
2022-09-15T10:44:48.445Z,19.72
2022-09-15T10:47:36.734Z,19.22
2022-09-15T10:50:42.649Z,18.91
2022-09-15T10:53:25.770Z,19.13
2022-09-15T10:56:25.352Z,19.28
2022-09-15T10:59:36.843Z,19.00
2022-09-15T11:02:45.402Z,18.96
2022-09-15T11:05:28.626Z,18.89
2022-09-15T11:08:57.875Z,18.81
2022-09-15T11:12:17.140Z,18.85
2022-09-15T11:15:21.669Z,18.92
2022-09-15T11:18:16.790Z,19.10
2022-09-15T11:21:27.551Z,18.97
2022-09-15T11:24:27.072Z,18.49
2022-09-15T11:27:06.457Z,18.29
2022-09-15T11:30:04.346Z,18.13
2022-09-15T11:33:02.108Z,18.12
2022-09-15T11:35:39.287Z,18.26
2022-09-15T11:38:53.097Z,18.50
2022-09-15T11:41:23.888Z,18.54
2022-09-15T11:44:22.356Z,18.66
2022-09-15T11:47:21.053Z,18.59
2022-09-15T11:50:14.583Z,18.81
2022-09-15T11:53:01.211Z,19.11
2022-09-15T11:55:38.314Z,19.32
2022-09-15T11:58:09.134Z,19.43
2022-09-15T12:00:48.728Z,19.85
2022-09-15T12:03:46.018Z,20.32
2022-09-15T12:06:45.833Z,20.54
2022-09-15T12:09:18.249Z,20.35
2022-09-15T12:11:49.758Z,20.17
2022-09-15T12:14:41.290Z,20.10
2022-09-15T12:17:37.762Z,20.27
2022-09-15T12:20:23.510Z,20.04
2022-09-15T12:23:12.072Z,20.04
2022-09-15T12:25:55.544Z,19.79
2022-09-15T12:28:24.768Z,19.40
2022-09-15T12:31:14.477Z,19.23
2022-09-15T12:33:42.272Z,19.04
2022-09-15T12:36:47.447Z,18.96
2022-09-15T12:39:37.383Z,18.90
2022-09-15T12:42:31.356Z,18.82
2022-09-15T12:45:19.571Z,18.75
2022-09-15T12:48:33.587Z,18.69
2022-09-15T12:51:10.771Z,18.70
2022-09-15T12:54:02.644Z,18.66
2022-09-15T12:56:33.952Z,18.66
2022-09-15T12:59:07.574Z,18.70
2022-09-15T13:01:49.584Z,18.78
2022-09-15T13:04:41.891Z,18.89
2022-09-15T13:07:32.688Z,18.82
2022-09-15T13:10:10.759Z,18.87
2022-09-15T13:12:49.568Z,18.73
2022-09-15T13:15:18.953Z,18.82
2022-09-15T13:17:47.731Z,18.90
2022-09-15T13:20:23.815Z,18.95
2022-09-15T13:22:54.163Z,18.97
2022-09-15T13:25:29.708Z,18.88
2022-09-15T13:28:01.211Z,19.24
2022-09-15T13:31:05.186Z,19.33
2022-09-15T13:41:11.339Z,18.46
2022-09-15T13:44:19.564Z,18.51
2022-09-15T13:47:20.241Z,18.55
2022-09-15T13:50:40.646Z,18.46
2022-09-15T13:53:53.171Z,18.48
2022-09-15T13:56:41.426Z,18.68
2022-09-15T13:59:31.632Z,19.08
2022-09-15T14:02:00.777Z,19.17
2022-09-15T14:04:31.735Z,19.60
2022-09-15T14:07:01.996Z,19.60
2022-09-15T14:09:42.104Z,19.10
2022-09-15T14:12:14.937Z,18.84
2022-09-15T14:14:47.843Z,18.75
2022-09-15T14:17:26.696Z,18.84
2022-09-15T14:19:58.834Z,18.96
2022-09-15T14:22:35.542Z,19.10
2022-09-15T14:25:14.395Z,19.09
2022-09-15T14:27:49.877Z,19.39
2022-09-15T14:30:29.351Z,19.14
2022-09-15T14:33:01.232Z,19.08
2022-09-15T14:35:36.466Z,18.95
2022-09-15T14:38:05.323Z,18.79
2022-09-15T14:40:39.410Z,19.37
2022-09-15T14:43:30.799Z,19.98
2022-09-15T14:46:18.423Z,19.80
2022-09-15T14:48:46.496Z,19.51
2022-09-15T14:51:25.478Z,19.22
2022-09-15T14:53:57.955Z,19.25
2022-09-15T14:56:32.903Z,19.38
2022-09-15T14:59:16.659Z,19.56
2022-09-15T15:02:16.786Z,19.24
2022-09-15T15:04:54.237Z,18.82
2022-09-15T15:07:29.144Z,18.36
2022-09-15T15:10:04.446Z,18.37
2022-09-15T15:12:41.819Z,18.42
2022-09-15T15:15:16.034Z,18.49
2022-09-15T15:17:50.756Z,18.59
2022-09-15T15:20:27.064Z,18.85
2022-09-15T15:23:10.889Z,18.78
2022-09-15T15:25:39.403Z,18.73
2022-09-15T15:28:28.779Z,18.66
2022-09-15T15:31:17.845Z,18.59
2022-09-15T15:33:49.767Z,18.40
2022-09-15T15:36:23.820Z,18.30
2022-09-15T15:38:55.660Z,18.25
2022-09-15T15:41:27.839Z,18.14
2022-09-15T15:44:09.625Z,18.16
2022-09-15T15:46:55.715Z,18.18
2022-09-15T15:49:29.281Z,18.19
2022-09-15T15:52:00.088Z,18.12
2022-09-15T15:54:28.328Z,18.11
2022-09-15T15:57:20.175Z,18.06
2022-09-15T15:59:48.057Z,18.10
2022-09-15T16:02:15.947Z,18.04
2022-09-15T16:04:43.858Z,17.96
2022-09-15T16:07:17.949Z,17.88
2022-09-15T16:09:48.261Z,17.84
2022-09-15T16:12:16.663Z,17.78
2022-09-15T16:14:44.569Z,17.77
2022-09-15T16:17:12.974Z,17.76
2022-09-15T16:19:40.893Z,17.71
2022-09-15T16:22:17.892Z,17.64
2022-09-15T16:24:47.191Z,17.60
2022-09-15T16:27:17.935Z,17.57
2022-09-15T16:29:46.203Z,17.50
2022-09-15T16:32:20.804Z,17.41
2022-09-15T16:34:53.833Z,17.33
2022-09-15T16:37:22.141Z,17.22
2022-09-15T16:39:52.164Z,17.18
2022-09-15T16:42:20.149Z,17.16
2022-09-15T16:44:48.046Z,17.10
2022-09-15T16:47:15.946Z,17.01
2022-09-15T16:49:43.979Z,16.94
2022-09-15T16:52:13.472Z,16.90
2022-09-15T16:54:41.714Z,16.86
2022-09-15T16:57:09.563Z,16.80
2022-09-15T16:59:37.415Z,16.73
2022-09-15T17:02:13.496Z,16.63
2022-09-15T17:04:41.392Z,16.51
2022-09-15T17:07:09.204Z,16.42
2022-09-15T17:09:37.023Z,16.35
2022-09-15T17:12:05.277Z,16.27
2022-09-15T17:14:33.187Z,16.20
2022-09-15T17:17:01.051Z,16.13
2022-09-15T17:19:29.449Z,16.08
2022-09-15T17:21:57.256Z,16.03
2022-09-15T17:24:25.152Z,15.98
2022-09-15T17:26:53.272Z,15.98
2022-09-15T17:29:21.580Z,15.97
2022-09-15T17:31:49.503Z,15.99
2022-09-15T17:34:17.553Z,15.98
2022-09-15T17:36:45.419Z,15.96
2022-09-15T17:39:13.227Z,15.94
2022-09-15T17:41:41.080Z,15.90
2022-09-15T17:44:12.010Z,15.84
2022-09-15T17:46:40.029Z,15.79
2022-09-15T17:49:08.014Z,15.72
2022-09-15T17:51:36.366Z,15.66
2022-09-15T17:54:06.587Z,15.60
2022-09-15T17:56:34.458Z,15.54
2022-09-15T17:59:02.306Z,15.50
2022-09-15T18:01:30.245Z,15.38
2022-09-15T18:03:58.396Z,15.43
2022-09-15T18:06:26.294Z,15.37
2022-09-15T18:08:54.163Z,15.32
2022-09-15T18:11:22.178Z,15.27
2022-09-15T18:13:50.105Z,15.22
2022-09-15T18:16:18.106Z,15.18
2022-09-15T18:18:47.327Z,15.19
2022-09-15T18:21:28.948Z,15.15
2022-09-15T18:23:57.056Z,15.12
2022-09-15T18:26:26.629Z,15.10
2022-09-15T18:28:55.672Z,15.08
2022-09-15T18:31:23.781Z,15.09
2022-09-15T18:33:51.792Z,15.10
2022-09-15T18:36:20.746Z,15.15
2022-09-15T18:38:48.830Z,15.20
2022-09-15T18:41:17.013Z,15.26
2022-09-15T18:43:48.816Z,15.28
2022-09-15T18:46:17.832Z,15.32
2022-09-15T18:48:45.856Z,15.34
2022-09-15T18:51:23.779Z,15.34
2022-09-15T18:53:57.544Z,15.35
2022-09-15T18:56:25.591Z,15.37
2022-09-15T18:58:54.497Z,15.38
2022-09-15T19:01:23.250Z,15.39
2022-09-15T19:03:51.517Z,15.40
2022-09-15T19:06:19.454Z,15.41
2022-09-15T19:08:47.372Z,15.44
2022-09-15T19:11:15.332Z,15.45
2022-09-15T19:13:43.537Z,15.46
2022-09-15T19:16:11.662Z,15.47
2022-09-15T19:18:39.577Z,15.45
2022-09-15T19:21:10.647Z,15.43
2022-09-15T19:23:39.172Z,15.36
2022-09-15T19:26:13.631Z,15.31
2022-09-15T19:28:45.716Z,15.32
2022-09-15T19:31:13.761Z,15.35
2022-09-15T19:33:42.551Z,15.34
2022-09-15T19:36:27.379Z,15.30
2022-09-15T19:39:02.747Z,15.25
2022-09-15T19:41:31.589Z,15.14
2022-09-15T19:44:02.286Z,15.08
2022-09-15T19:46:31.076Z,15.07
2022-09-15T19:48:59.195Z,15.07
2022-09-15T19:51:27.171Z,15.02
2022-09-15T19:53:56.820Z,14.97
2022-09-15T19:56:26.663Z,14.93
2022-09-15T19:58:57.384Z,14.88
2022-09-15T20:01:28.462Z,14.87
2022-09-15T20:03:57.415Z,14.88
2022-09-15T20:06:28.940Z,14.84
2022-09-15T20:09:00.502Z,14.85
2022-09-15T20:11:29.848Z,14.85
2022-09-15T20:13:58.990Z,14.84
2022-09-15T20:16:27.463Z,14.77
2022-09-15T20:18:56.464Z,14.72
2022-09-15T20:21:49.123Z,14.69
2022-09-15T20:24:19.831Z,14.60
2022-09-15T20:26:48.449Z,14.51
2022-09-15T20:29:16.543Z,14.48
2022-09-15T20:31:45.079Z,14.45
2022-09-15T20:34:13.426Z,14.42
2022-09-15T20:36:41.365Z,14.37
2022-09-15T20:39:13.340Z,14.31
2022-09-15T20:41:46.517Z,14.25
2022-09-15T20:44:14.915Z,14.22
2022-09-15T20:46:43.204Z,14.17
2022-09-15T20:49:12.528Z,14.12
2022-09-15T20:51:40.451Z,14.07
2022-09-15T20:54:10.881Z,14.02
2022-09-15T20:56:38.919Z,14.01
2022-09-15T20:59:10.283Z,13.96
2022-09-15T21:01:39.686Z,13.94
2022-09-15T21:04:09.579Z,13.89
2022-09-15T21:06:39.279Z,13.88
2022-09-15T21:09:07.871Z,13.82
2022-09-15T21:11:36.867Z,13.83
2022-09-15T21:14:04.859Z,13.84
2022-09-15T21:16:34.888Z,13.84
2022-09-15T21:19:03.730Z,13.80
2022-09-15T21:21:33.640Z,13.81
2022-09-15T21:24:07.929Z,13.82
2022-09-15T21:26:58.103Z,13.83
2022-09-15T21:29:27.911Z,13.83
2022-09-15T21:31:56.385Z,13.79
2022-09-15T21:34:24.449Z,13.82
2022-09-15T21:36:53.613Z,13.78
2022-09-15T21:39:21.583Z,13.79
2022-09-15T21:41:49.970Z,13.69
2022-09-15T21:44:18.044Z,13.61
2022-09-15T21:46:47.267Z,13.52
2022-09-15T21:49:15.214Z,13.47
2022-09-15T21:51:43.062Z,13.46
2022-09-15T21:54:10.878Z,13.42
2022-09-15T21:56:38.772Z,13.25
2022-09-15T21:59:09.009Z,13.32
2022-09-15T22:01:37.107Z,13.36
2022-09-15T22:04:07.630Z,13.32
2022-09-15T22:06:40.429Z,13.26
2022-09-15T22:09:16.639Z,13.22
2022-09-15T22:11:44.827Z,13.16
2022-09-15T22:14:13.266Z,13.12
2022-09-15T22:16:42.994Z,13.12
2022-09-15T22:19:12.230Z,13.09
2022-09-15T22:21:42.050Z,13.06
2022-09-15T22:24:13.457Z,13.07
2022-09-15T22:26:43.473Z,13.07
2022-09-15T22:29:11.767Z,13.05
2022-09-15T22:31:40.957Z,13.04
2022-09-15T22:34:09.478Z,13.02
2022-09-15T22:36:37.304Z,12.95
2022-09-15T22:39:06.317Z,13.00
2022-09-15T22:41:39.004Z,12.99
2022-09-15T22:44:16.882Z,13.01
2022-09-15T22:46:45.102Z,13.03
2022-09-15T22:49:12.955Z,13.03
2022-09-15T22:51:40.878Z,13.05
2022-09-15T22:54:08.807Z,13.01
2022-09-15T22:56:36.651Z,12.97
2022-09-15T22:59:04.530Z,12.98
2022-09-15T23:01:32.437Z,12.98
2022-09-15T23:04:02.455Z,12.96
2022-09-15T23:06:33.667Z,12.94
2022-09-15T23:09:08.532Z,12.89
2022-09-15T23:11:39.753Z,12.86
2022-09-15T23:14:13.801Z,12.83
2022-09-15T23:16:43.365Z,12.84
2022-09-15T23:19:14.592Z,12.81
2022-09-15T23:21:42.555Z,12.80
2022-09-15T23:24:12.420Z,12.76
2022-09-15T23:26:40.493Z,12.71
2022-09-15T23:29:08.402Z,12.68
2022-09-15T23:31:36.518Z,12.63
2022-09-15T23:34:04.512Z,12.56
2022-09-15T23:36:32.404Z,12.54
2022-09-15T23:39:00.339Z,12.51
2022-09-15T23:41:28.212Z,12.50
2022-09-15T23:43:56.914Z,12.52
2022-09-15T23:46:24.933Z,12.52
2022-09-15T23:48:52.841Z,12.49
2022-09-15T23:51:20.770Z,12.46
2022-09-15T23:53:48.583Z,12.44
2022-09-15T23:56:16.425Z,12.41
2022-09-15T23:58:44.399Z,12.37
